createdAt,value
2018-02-20T00:02:17.822Z,76.50
2018-02-20T00:12:37.689Z,77.00
2018-02-20T00:17:46.432Z,76.60
2018-02-20T00:23:09.367Z,76.70
2018-02-20T00:28:24.022Z,77.00
2018-02-20T00:39:15.198Z,76.90
2018-02-20T00:49:53.597Z,76.70
2018-02-20T00:55:07.454Z,76.90
2018-02-20T01:00:26.224Z,77.30
2018-02-20T01:05:35.583Z,76.70
2018-02-20T01:10:52.991Z,76.90
2018-02-20T01:21:27.136Z,77.20
2018-02-20T01:26:49.244Z,76.80
2018-02-20T01:43:46.196Z,76.80
2018-02-20T01:54:24.997Z,77.00
2018-02-20T01:59:41.960Z,76.80
2018-02-20T02:04:54.822Z,76.90
2018-02-20T02:10:14.407Z,76.60
2018-02-20T02:15:20.990Z,76.90
2018-02-20T02:20:31.381Z,77.10
2018-02-20T02:36:54.977Z,77.20
2018-02-20T02:47:52.405Z,77.40
2018-02-20T02:53:15.568Z,77.60
2018-02-20T02:58:31.664Z,77.20
2018-02-20T03:09:22.351Z,77.60
2018-02-20T03:19:53.689Z,77.40
2018-02-20T03:25:09.159Z,77.50
2018-02-20T03:30:27.108Z,77.50
2018-02-20T03:41:02.400Z,77.50
2018-02-20T03:46:05.008Z,77.50
2018-02-20T03:51:07.888Z,77.50
2018-02-20T03:56:10.583Z,77.80
2018-02-20T04:01:13.624Z,77.70
2018-02-20T04:06:16.499Z,77.70
2018-02-20T04:11:20.835Z,77.90
2018-02-20T04:16:23.619Z,77.70
2018-02-20T04:21:27.059Z,77.70
2018-02-20T04:26:29.815Z,77.70
2018-02-20T04:31:32.623Z,77.60
2018-02-20T04:36:36.039Z,77.50
2018-02-20T04:41:38.921Z,77.30
2018-02-20T04:46:41.612Z,77.20
2018-02-20T04:51:44.575Z,77.40
2018-02-20T04:56:48.066Z,76.90
2018-02-20T05:01:50.679Z,77.00
2018-02-20T05:06:53.986Z,76.90
2018-02-20T05:11:56.867Z,76.70
2018-02-20T05:16:59.618Z,76.70
2018-02-20T05:22:03.143Z,76.80
2018-02-20T05:27:06.054Z,76.50
2018-02-20T05:32:08.679Z,76.50
2018-02-20T05:37:12.832Z,76.40
2018-02-20T05:42:15.752Z,76.40
2018-02-20T05:47:19.211Z,76.50
2018-02-20T05:52:21.860Z,76.70
2018-02-20T05:57:24.783Z,76.70
2018-02-20T06:02:28.174Z,76.70
2018-02-20T06:07:46.804Z,76.70
2018-02-20T06:12:49.485Z,76.60
2018-02-20T06:17:52.133Z,76.80
2018-02-20T06:22:55.239Z,76.90
2018-02-20T06:27:59.589Z,76.60
2018-02-20T06:33:03.163Z,76.70
2018-02-20T06:38:05.768Z,76.70
2018-02-20T06:43:08.482Z,77.00
2018-02-20T06:48:12.303Z,77.10
2018-02-20T06:53:16.747Z,77.10
2018-02-20T06:58:20.715Z,77.50
2018-02-20T07:03:23.511Z,77.60
2018-02-20T07:08:28.248Z,77.90
2018-02-20T07:13:31.340Z,77.90
2018-02-20T07:18:35.175Z,77.80
2018-02-20T07:23:37.910Z,77.80
2018-02-20T07:28:40.808Z,78.00
2018-02-20T07:33:44.565Z,78.00
2018-02-20T07:38:49.005Z,77.90
2018-02-20T07:43:53.427Z,78.10
2018-02-20T07:48:56.667Z,77.90
2018-02-20T07:53:59.978Z,78.00
2018-02-20T07:59:02.725Z,78.00
2018-02-20T08:04:06.602Z,78.10
2018-02-20T08:09:10.983Z,78.00
2018-02-20T08:14:14.031Z,78.20
2018-02-20T08:19:17.316Z,78.10
2018-02-20T08:24:20.155Z,78.20
2018-02-20T08:29:23.236Z,78.50
2018-02-20T08:34:26.265Z,79.30
2018-02-20T08:39:29.979Z,79.70
2018-02-20T08:44:34.250Z,79.80
2018-02-20T08:49:38.081Z,79.40
2018-02-20T08:54:40.797Z,79.70
2018-02-20T08:59:43.439Z,79.60
2018-02-20T09:04:46.238Z,79.80
2018-02-20T09:09:49.758Z,79.80
2018-02-20T09:14:53.491Z,79.80
2018-02-20T09:19:56.824Z,79.60
2018-02-20T09:24:59.963Z,79.60
2018-02-20T09:30:02.711Z,79.50
2018-02-20T09:35:10.107Z,79.40
2018-02-20T09:40:13.706Z,79.20
2018-02-20T09:45:16.386Z,79.10
2018-02-20T09:50:19.248Z,78.70
2018-02-20T09:55:21.932Z,78.80
2018-02-20T10:00:24.809Z,78.20
2018-02-20T10:05:27.706Z,78.10
2018-02-20T10:10:30.736Z,77.90
2018-02-20T10:15:35.044Z,77.10
2018-02-20T10:20:37.971Z,77.20
2018-02-20T10:25:42.612Z,77.20
2018-02-20T10:30:45.545Z,77.20
2018-02-20T10:35:48.332Z,76.50
2018-02-20T10:40:51.860Z,76.30
2018-02-20T10:45:54.769Z,76.20
2018-02-20T10:50:57.804Z,77.00
2018-02-20T10:56:00.537Z,76.40
2018-02-20T11:01:04.679Z,76.20
2018-02-20T11:06:08.188Z,76.30
2018-02-20T11:11:10.866Z,76.00
2018-02-20T11:16:13.747Z,75.70
2018-02-20T11:21:17.487Z,74.80
2018-02-20T11:26:20.635Z,74.70
2018-02-20T11:31:23.811Z,74.30
2018-02-20T11:36:28.840Z,74.00
2018-02-20T11:41:32.037Z,73.90
2018-02-20T11:46:34.657Z,73.50
2018-02-20T11:51:37.669Z,73.20
2018-02-20T11:56:41.821Z,72.20
2018-02-20T12:01:45.347Z,72.10
2018-02-20T12:06:48.410Z,72.30
2018-02-20T12:11:53.010Z,71.70
2018-02-20T12:16:57.047Z,71.70
2018-02-20T12:21:59.843Z,72.00
2018-02-20T12:27:02.543Z,71.60
2018-02-20T12:32:05.330Z,71.10
2018-02-20T12:37:08.248Z,71.60
2018-02-20T12:42:11.296Z,71.50
2018-02-20T12:47:14.080Z,71.10
2018-02-20T12:52:16.786Z,71.30
2018-02-20T12:57:19.545Z,71.00
2018-02-20T13:02:22.263Z,71.40
2018-02-20T13:07:25.375Z,70.70
2018-02-20T13:12:29.108Z,70.70
2018-02-20T13:17:33.157Z,71.50
2018-02-20T13:22:36.143Z,71.40
2018-02-20T13:27:39.449Z,71.00
2018-02-20T13:32:42.134Z,70.80
2018-02-20T13:37:46.337Z,70.90
2018-02-20T13:42:48.952Z,70.70
2018-02-20T13:47:51.828Z,70.70
2018-02-20T13:52:55.071Z,71.10
2018-02-20T13:57:57.778Z,71.30
2018-02-20T14:03:00.488Z,71.60
2018-02-20T14:08:04.245Z,71.60
2018-02-20T14:13:07.611Z,71.40
2018-02-20T14:18:10.311Z,71.60
2018-02-20T14:23:13.637Z,72.00
2018-02-20T14:28:16.314Z,71.80
2018-02-20T14:33:21.736Z,72.20
2018-02-20T14:38:24.765Z,72.10
2018-02-20T14:43:28.391Z,72.10
2018-02-20T14:48:31.399Z,72.00
2018-02-20T14:53:34.141Z,72.00
2018-02-20T14:58:36.866Z,72.20
2018-02-20T15:03:40.890Z,72.30
2018-02-20T15:08:43.826Z,72.60
2018-02-20T15:13:47.724Z,72.50
2018-02-20T15:18:51.481Z,73.00
2018-02-20T15:23:54.631Z,72.70
2018-02-20T15:28:57.732Z,72.70
2018-02-20T15:34:01.423Z,72.50
2018-02-20T15:39:04.263Z,73.20
2018-02-20T15:44:09.087Z,72.70
2018-02-20T15:49:12.107Z,72.70
2018-02-20T15:54:15.286Z,72.90
2018-02-20T15:59:19.490Z,73.10
2018-02-20T16:04:22.281Z,72.90
2018-02-20T16:09:25.881Z,73.10
2018-02-20T16:14:30.081Z,73.40
2018-02-20T16:19:33.694Z,73.40
2018-02-20T16:24:37.636Z,73.60
2018-02-20T16:29:40.342Z,73.70
2018-02-20T16:34:44.385Z,74.10
2018-02-20T16:39:47.411Z,74.00
2018-02-20T16:44:50.067Z,74.10
2018-02-20T16:49:53.503Z,73.90
2018-02-20T16:54:56.219Z,73.90
2018-02-20T17:00:00.975Z,73.80
2018-02-20T17:05:04.531Z,74.60
2018-02-20T17:10:08.395Z,74.60
2018-02-20T17:15:11.071Z,74.90
2018-02-20T17:20:13.770Z,74.30
2018-02-20T17:25:17.103Z,74.80
2018-02-20T17:30:19.929Z,75.10
2018-02-20T17:35:22.625Z,75.20
2018-02-20T17:40:26.295Z,75.10
2018-02-20T17:45:29.916Z,75.90
2018-02-20T17:50:33.411Z,75.50
2018-02-20T17:55:36.110Z,75.30
2018-02-20T18:00:38.984Z,75.80
2018-02-20T18:05:41.809Z,75.30
2018-02-20T18:10:44.711Z,75.50
2018-02-20T18:15:47.521Z,75.60
2018-02-20T18:20:52.204Z,75.80
2018-02-20T18:25:55.570Z,75.70
2018-02-20T18:30:58.701Z,75.90
2018-02-20T18:36:01.401Z,76.20
2018-02-20T18:41:03.982Z,76.30
2018-02-20T18:46:06.604Z,76.60
2018-02-20T18:51:09.300Z,76.40
2018-02-20T18:56:11.943Z,76.50
2018-02-20T19:01:15.387Z,76.60
2018-02-20T19:06:18.022Z,76.50
2018-02-20T19:11:20.968Z,76.60
2018-02-20T19:16:23.590Z,76.80
2018-02-20T19:21:27.510Z,76.90
2018-02-20T19:26:30.536Z,76.80
2018-02-20T19:31:35.041Z,77.00
2018-02-20T19:36:37.699Z,76.90
2018-02-20T19:41:41.602Z,77.70
2018-02-20T19:46:44.908Z,76.80
2018-02-20T19:51:47.947Z,77.10
2018-02-20T19:56:50.665Z,76.90
2018-02-20T20:01:53.388Z,76.80
2018-02-20T20:06:57.409Z,77.10
2018-02-20T20:12:00.101Z,77.00
2018-02-20T20:17:03.919Z,77.00
2018-02-20T20:22:07.335Z,76.90
2018-02-20T20:27:11.516Z,76.90
2018-02-20T20:32:14.959Z,77.00
2018-02-20T20:37:17.775Z,76.90
2018-02-20T20:42:20.470Z,77.00
2018-02-20T20:47:23.239Z,77.30
2018-02-20T20:52:25.911Z,77.10
2018-02-20T20:57:29.851Z,77.10
2018-02-20T21:02:33.042Z,77.50
2018-02-20T21:07:37.341Z,77.60
2018-02-20T21:12:40.271Z,77.50
2018-02-20T21:17:42.976Z,77.50
2018-02-20T21:22:45.938Z,77.40
2018-02-20T21:27:49.259Z,77.50
2018-02-20T21:32:52.144Z,77.00
2018-02-20T21:37:55.101Z,77.20
2018-02-20T21:42:57.828Z,77.30
2018-02-20T21:48:00.607Z,77.10
2018-02-20T21:53:03.519Z,77.20
2018-02-20T21:58:07.111Z,76.90
2018-02-20T22:03:10.574Z,76.80
2018-02-20T22:08:13.568Z,76.70
2018-02-20T22:13:16.444Z,76.60
2018-02-20T22:18:19.721Z,76.50
2018-02-20T22:23:22.692Z,76.80
2018-02-20T22:28:25.496Z,76.50
2018-02-20T22:33:30.018Z,76.40
2018-02-20T22:38:33.205Z,76.30
2018-02-20T22:43:36.224Z,76.10
2018-02-20T22:48:39.483Z,76.40
2018-02-20T22:53:43.017Z,76.30
2018-02-20T22:58:48.340Z,76.60
2018-02-20T23:03:51.236Z,76.50
2018-02-20T23:08:55.337Z,76.60
2018-02-20T23:13:58.416Z,77.10
2018-02-20T23:19:01.084Z,77.00
2018-02-20T23:24:04.559Z,77.90
2018-02-20T23:29:08.493Z,77.00
2018-02-20T23:34:12.048Z,77.10
2018-02-20T23:39:14.811Z,77.00
2018-02-20T23:44:17.415Z,77.50
2018-02-20T23:49:20.476Z,77.30
2018-02-20T23:54:23.434Z,77.70
2018-02-20T23:59:27.003Z,78.20
